createdAt,value
2023-05-09T00:02:34.629Z,3.20
2023-05-09T00:05:09.211Z,3.90
2023-05-09T00:07:36.388Z,3.97
2023-05-09T00:10:04.026Z,4.22
2023-05-09T00:15:08.400Z,3.47
2023-05-09T00:17:36.481Z,3.63
2023-05-09T00:20:12.307Z,3.67
2023-05-09T00:22:41.032Z,4.03
2023-05-09T00:25:16.330Z,4.15
2023-05-09T00:27:43.685Z,3.78
2023-05-09T00:30:10.938Z,3.90
2023-05-09T00:32:47.103Z,3.75
2023-05-09T00:35:14.857Z,3.83
2023-05-09T00:37:49.121Z,4.43
2023-05-09T00:40:16.386Z,3.75
2023-05-09T00:42:43.720Z,3.63
2023-05-09T00:45:18.208Z,3.55
2023-05-09T00:47:45.423Z,3.83
2023-05-09T00:50:12.616Z,4.13
2023-05-09T00:52:46.077Z,3.53
2023-05-09T00:55:14.072Z,3.55
2023-05-09T00:57:48.189Z,3.17
2023-05-09T01:00:22.056Z,3.83
2023-05-09T01:02:59.272Z,4.28
2023-05-09T01:05:30.616Z,3.88
2023-05-09T01:08:08.210Z,3.63
2023-05-09T01:10:55.996Z,4.13
2023-05-09T01:13:36.618Z,4.13
2023-05-09T01:16:22.085Z,3.70
2023-05-09T01:19:03.335Z,3.30
2023-05-09T01:21:39.986Z,3.65
2023-05-09T01:24:07.521Z,3.58
2023-05-09T01:27:07.028Z,4.00
2023-05-09T01:29:39.017Z,4.05
2023-05-09T01:32:16.999Z,4.00
2023-05-09T01:34:45.094Z,3.55
2023-05-09T01:37:21.156Z,3.95
2023-05-09T01:39:50.059Z,3.88
2023-05-09T01:42:18.244Z,3.88
2023-05-09T01:44:53.128Z,4.00
2023-05-09T01:47:20.796Z,3.60
2023-05-09T01:52:23.063Z,3.97
2023-05-09T01:54:51.556Z,3.60
2023-05-09T01:57:26.220Z,3.67
2023-05-09T02:00:15.000Z,4.05
2023-05-09T02:02:49.301Z,3.45
2023-05-09T02:05:24.271Z,3.67
2023-05-09T02:07:51.752Z,3.75
2023-05-09T02:10:20.793Z,3.80
2023-05-09T02:12:54.073Z,3.95
2023-05-09T02:15:21.873Z,3.70
2023-05-09T02:17:55.170Z,3.40
2023-05-09T02:20:22.410Z,4.13
2023-05-09T02:22:49.501Z,3.75
2023-05-09T02:25:24.123Z,3.67
2023-05-09T02:27:52.544Z,3.53
2023-05-09T02:30:32.373Z,3.55
2023-05-09T02:33:09.257Z,3.50
2023-05-09T02:35:37.415Z,3.72
2023-05-09T02:38:11.156Z,3.85
2023-05-09T02:40:38.627Z,3.50
2023-05-09T02:43:07.552Z,3.42
2023-05-09T02:45:42.221Z,4.03
2023-05-09T02:48:09.690Z,3.97
2023-05-09T02:50:49.092Z,3.83
2023-05-09T02:53:16.332Z,3.20
2023-05-09T02:55:43.499Z,3.75
2023-05-09T02:58:17.078Z,3.72
2023-05-09T03:00:51.204Z,3.33
2023-05-09T03:03:25.271Z,3.63
2023-05-09T03:05:52.605Z,3.72
2023-05-09T03:08:26.064Z,3.65
2023-05-09T03:10:53.392Z,3.63
2023-05-09T03:13:33.172Z,3.70
2023-05-09T03:16:00.746Z,4.00
2023-05-09T03:21:01.046Z,3.38
2023-05-09T03:23:28.352Z,3.58
2023-05-09T03:26:02.343Z,3.85
2023-05-09T03:28:29.646Z,3.70
2023-05-09T03:30:56.973Z,3.67
2023-05-09T03:33:31.470Z,3.58
2023-05-09T03:35:58.937Z,4.30
2023-05-09T03:38:33.207Z,3.60
2023-05-09T03:41:07.042Z,3.28
2023-05-09T03:43:41.197Z,4.05
2023-05-09T03:46:15.050Z,3.70
2023-05-09T03:48:49.167Z,3.72
2023-05-09T03:51:16.509Z,3.47
2023-05-09T03:53:44.493Z,3.40
2023-05-09T03:56:18.249Z,3.47
2023-05-09T03:58:45.873Z,3.53
2023-05-09T04:01:26.551Z,3.90
2023-05-09T04:04:00.190Z,3.53
2023-05-09T04:06:34.232Z,3.40
2023-05-09T04:09:01.562Z,3.25
2023-05-09T04:11:28.723Z,3.20
2023-05-09T04:14:02.147Z,3.60
2023-05-09T04:16:29.417Z,3.60
2023-05-09T04:19:03.342Z,3.47
2023-05-09T04:21:31.821Z,3.63
2023-05-09T04:23:58.929Z,3.10
2023-05-09T04:26:33.220Z,3.55
2023-05-09T04:29:00.607Z,3.50
2023-05-09T04:31:34.340Z,4.15
2023-05-09T04:34:01.548Z,3.70
2023-05-09T04:36:28.953Z,3.30
2023-05-09T04:39:03.230Z,3.88
2023-05-09T04:41:30.952Z,3.35
2023-05-09T04:44:05.277Z,3.83
2023-05-09T04:46:32.627Z,3.63
2023-05-09T04:48:59.760Z,3.03
2023-05-09T04:51:33.236Z,3.03
2023-05-09T04:54:01.280Z,3.40
2023-05-09T04:56:35.244Z,3.63
2023-05-09T04:59:02.390Z,3.40
2023-05-09T05:01:43.198Z,3.30
2023-05-09T05:04:10.698Z,3.70
2023-05-09T05:06:37.899Z,3.33
2023-05-09T05:09:12.205Z,3.05
2023-05-09T05:11:40.432Z,3.47
2023-05-09T05:14:17.161Z,3.65
2023-05-09T05:16:44.456Z,3.33
2023-05-09T05:19:11.591Z,3.85
2023-05-09T05:21:45.158Z,3.00
2023-05-09T05:24:14.739Z,3.55
2023-05-09T05:26:51.166Z,3.35
2023-05-09T05:29:18.905Z,3.75
2023-05-09T05:31:46.107Z,3.20
2023-05-09T05:34:20.191Z,3.85
2023-05-09T05:36:47.780Z,3.75
2023-05-09T05:41:48.641Z,3.83
2023-05-09T05:44:15.764Z,4.22
2023-05-09T05:46:49.122Z,3.95
2023-05-09T05:49:16.418Z,3.05
2023-05-09T05:51:43.538Z,3.42
2023-05-09T05:54:18.221Z,3.38
2023-05-09T05:56:45.426Z,3.35
2023-05-09T05:59:19.145Z,4.00
2023-05-09T06:01:53.146Z,3.10
2023-05-09T06:04:27.217Z,3.80
2023-05-09T06:06:54.487Z,3.03
2023-05-09T06:09:21.865Z,3.42
2023-05-09T06:11:55.092Z,3.70
2023-05-09T06:14:29.159Z,3.75
2023-05-09T06:17:03.251Z,3.40
2023-05-09T06:19:30.813Z,3.50
2023-05-09T06:21:57.944Z,3.78
2023-05-09T06:24:35.807Z,3.00
2023-05-09T06:27:03.667Z,3.33
2023-05-09T06:29:37.099Z,3.53
2023-05-09T06:32:04.738Z,3.13
2023-05-09T06:37:05.667Z,3.50
2023-05-09T06:42:06.341Z,3.33
2023-05-09T06:44:33.568Z,3.40
2023-05-09T06:47:01.751Z,3.38
2023-05-09T06:49:35.200Z,3.30
2023-05-09T06:52:02.535Z,3.15
2023-05-09T06:54:36.109Z,3.28
2023-05-09T06:57:03.476Z,3.63
2023-05-09T06:59:30.720Z,3.30
2023-05-09T07:02:04.184Z,3.80
2023-05-09T07:04:31.804Z,3.70
2023-05-09T07:09:34.419Z,3.53
2023-05-09T07:12:01.913Z,3.33
2023-05-09T07:14:35.323Z,3.47
2023-05-09T07:17:18.203Z,3.38
2023-05-09T07:19:55.372Z,3.50
2023-05-09T07:22:22.690Z,3.22
2023-05-09T07:24:50.832Z,3.15
2023-05-09T07:27:24.296Z,3.28
2023-05-09T07:29:52.595Z,3.60
2023-05-09T07:32:26.287Z,3.33
2023-05-09T07:34:53.473Z,3.70
2023-05-09T07:37:20.943Z,3.50
2023-05-09T07:39:55.518Z,3.30
2023-05-09T07:42:22.960Z,3.60
2023-05-09T07:44:56.109Z,3.25
2023-05-09T07:47:23.530Z,3.75
2023-05-09T07:49:57.285Z,3.70
2023-05-09T07:52:24.591Z,3.40
2023-05-09T07:54:51.853Z,3.60
2023-05-09T07:57:25.119Z,3.45
2023-05-09T07:59:52.409Z,2.92
2023-05-09T08:02:26.228Z,3.75
2023-05-09T08:04:53.609Z,3.40
2023-05-09T08:07:21.156Z,3.42
2023-05-09T08:12:22.549Z,3.42
2023-05-09T08:14:56.332Z,3.13
2023-05-09T08:17:23.544Z,3.17
2023-05-09T08:19:50.670Z,3.70
2023-05-09T08:22:28.221Z,3.65
2023-05-09T08:24:55.515Z,3.50
2023-05-09T08:27:29.408Z,3.30
2023-05-09T08:29:56.599Z,3.40
2023-05-09T08:32:23.690Z,3.00
2023-05-09T08:34:57.223Z,3.25
2023-05-09T08:37:24.685Z,3.10
2023-05-09T08:39:58.277Z,3.35
2023-05-09T08:42:26.675Z,3.40
2023-05-09T08:44:53.962Z,3.53
2023-05-09T08:47:28.355Z,3.13
2023-05-09T08:49:55.622Z,3.10
2023-05-09T08:52:29.349Z,2.83
2023-05-09T08:54:57.203Z,2.70
2023-05-09T08:57:24.620Z,3.17
2023-05-09T09:00:00.336Z,3.50
2023-05-09T09:02:34.347Z,2.90
2023-05-09T09:05:34.137Z,2.97
2023-05-09T09:08:03.599Z,2.88
2023-05-09T09:10:38.218Z,2.80
2023-05-09T09:13:13.212Z,2.75
2023-05-09T09:15:48.245Z,3.13
2023-05-09T09:18:28.945Z,2.90
2023-05-09T09:21:07.354Z,3.22
2023-05-09T09:23:34.836Z,3.03
2023-05-09T09:28:35.795Z,2.85
2023-05-09T09:33:36.657Z,2.75
2023-05-09T09:36:04.071Z,2.97
2023-05-09T09:38:47.506Z,3.13
2023-05-09T09:41:14.933Z,2.97
2023-05-09T09:43:53.266Z,2.78
2023-05-09T09:46:20.578Z,2.70
2023-05-09T09:48:52.684Z,2.60
2023-05-09T09:51:27.263Z,2.78
2023-05-09T09:53:54.571Z,2.80
2023-05-09T09:56:29.320Z,2.78
2023-05-09T09:59:09.895Z,2.58
2023-05-09T10:01:50.391Z,2.75
2023-05-09T10:04:24.804Z,2.75
2023-05-09T10:07:05.287Z,2.90
2023-05-09T10:09:33.591Z,2.58
2023-05-09T10:12:04.953Z,2.75
2023-05-09T10:14:39.289Z,2.50
2023-05-09T10:17:13.331Z,2.80
2023-05-09T10:19:42.673Z,2.60
2023-05-09T10:22:11.189Z,2.47
2023-05-09T10:24:50.354Z,2.30
2023-05-09T10:27:19.913Z,2.25
2023-05-09T10:30:04.321Z,2.13
2023-05-09T10:32:46.758Z,2.38
2023-05-09T10:35:23.346Z,2.20
2023-05-09T10:37:50.857Z,2.13
2023-05-09T10:42:53.350Z,2.05
2023-05-09T10:45:21.665Z,2.00
2023-05-09T10:47:49.924Z,2.13
2023-05-09T10:50:24.311Z,2.20
2023-05-09T10:53:04.006Z,2.08
2023-05-09T10:56:02.254Z,2.35
2023-05-09T10:58:33.805Z,2.83
2023-05-09T11:01:15.331Z,2.10
2023-05-09T11:03:53.832Z,2.40
2023-05-09T11:06:46.699Z,2.53
2023-05-09T11:09:28.246Z,2.17
2023-05-09T11:12:05.366Z,2.47
2023-05-09T11:14:40.216Z,3.28
2023-05-09T11:17:15.325Z,2.65
2023-05-09T11:19:58.256Z,2.22
2023-05-09T11:22:28.058Z,2.50
2023-05-09T11:25:17.533Z,2.15
2023-05-09T11:27:46.529Z,2.40
2023-05-09T11:30:21.239Z,2.33
2023-05-09T11:32:53.424Z,2.20
2023-05-09T11:35:28.233Z,2.13
2023-05-09T11:38:05.842Z,2.20
2023-05-09T11:40:40.207Z,2.30
2023-05-09T11:43:09.711Z,2.67
2023-05-09T11:45:43.290Z,2.33
2023-05-09T11:48:10.834Z,2.13
2023-05-09T11:50:45.289Z,2.45
2023-05-09T11:53:12.867Z,2.15
2023-05-09T11:55:44.356Z,2.08
2023-05-09T11:58:25.520Z,2.15
2023-05-09T12:00:59.315Z,2.47
2023-05-09T12:03:40.615Z,2.13
2023-05-09T12:06:14.335Z,2.15
2023-05-09T12:08:48.363Z,1.98
2023-05-09T12:11:15.984Z,2.28
2023-05-09T12:13:56.336Z,2.38
2023-05-09T12:16:23.668Z,2.60
2023-05-09T12:18:52.602Z,2.47
2023-05-09T12:21:26.473Z,2.10
2023-05-09T12:23:57.034Z,2.17
2023-05-09T12:26:24.109Z,2.20
2023-05-09T12:28:58.387Z,2.35
2023-05-09T12:31:32.352Z,2.10
2023-05-09T12:33:59.777Z,2.13
2023-05-09T12:39:02.674Z,1.95
2023-05-09T12:41:39.031Z,2.00
2023-05-09T12:44:15.348Z,2.20
2023-05-09T12:46:42.955Z,2.30
2023-05-09T12:49:27.453Z,1.88
2023-05-09T12:51:55.179Z,2.00
2023-05-09T12:54:32.361Z,2.00
2023-05-09T12:56:59.677Z,1.80
2023-05-09T12:59:28.262Z,2.03
2023-05-09T13:02:04.816Z,1.65
2023-05-09T13:04:32.096Z,1.85
2023-05-09T13:07:06.369Z,1.65
2023-05-09T13:09:34.047Z,1.90
2023-05-09T13:12:07.432Z,1.42
2023-05-09T13:14:34.740Z,1.83
2023-05-09T13:17:01.956Z,2.15
2023-05-09T13:19:35.460Z,2.45
2023-05-09T13:22:02.727Z,1.83
2023-05-09T13:24:36.464Z,1.90
2023-05-09T13:27:04.742Z,1.52
2023-05-09T13:29:31.990Z,1.70
2023-05-09T13:32:05.322Z,1.60
2023-05-09T13:34:32.468Z,1.52
2023-05-09T13:37:06.372Z,1.40
2023-05-09T13:39:33.549Z,1.85
2023-05-09T13:42:01.164Z,1.73
2023-05-09T13:44:35.451Z,1.63
2023-05-09T13:47:02.866Z,1.60
2023-05-09T13:52:03.693Z,1.25
2023-05-09T13:54:44.391Z,1.40
2023-05-09T13:57:11.749Z,1.48
2023-05-09T13:59:41.177Z,1.40
2023-05-09T14:02:15.641Z,1.30
2023-05-09T14:04:42.853Z,1.10
2023-05-09T14:07:18.472Z,1.60
2023-05-09T14:09:48.174Z,1.42
2023-05-09T14:12:17.548Z,1.15
2023-05-09T14:14:51.436Z,1.38
2023-05-09T14:17:18.618Z,1.13
2023-05-09T14:19:52.799Z,1.27
2023-05-09T14:22:20.189Z,1.45
2023-05-09T14:27:21.379Z,1.60
2023-05-09T14:29:49.344Z,1.02
2023-05-09T14:32:16.877Z,1.40
2023-05-09T14:34:50.400Z,1.33
2023-05-09T14:37:17.632Z,1.48
2023-05-09T14:39:56.400Z,1.40
2023-05-09T14:42:23.781Z,1.40
2023-05-09T14:44:50.892Z,1.40
2023-05-09T14:47:24.479Z,1.25
2023-05-09T14:49:52.188Z,1.02
2023-05-09T14:52:26.628Z,1.05
2023-05-09T14:54:53.849Z,1.00
2023-05-09T14:57:20.932Z,1.10
2023-05-09T14:59:54.475Z,1.30
2023-05-09T15:02:28.385Z,1.20
2023-05-09T15:05:08.498Z,1.00
2023-05-09T15:07:35.929Z,1.13
2023-05-09T15:12:39.458Z,1.38
2023-05-09T15:15:12.876Z,1.15
2023-05-09T15:17:46.549Z,1.10
2023-05-09T15:20:20.095Z,1.00
2023-05-09T15:22:54.511Z,1.27
2023-05-09T15:25:23.134Z,1.33
2023-05-09T15:27:53.170Z,1.33
2023-05-09T15:30:26.470Z,1.30
2023-05-09T15:32:53.766Z,1.35
2023-05-09T15:35:27.527Z,1.27
2023-05-09T15:37:55.446Z,1.33
2023-05-09T15:40:22.650Z,1.70
2023-05-09T15:42:57.488Z,1.55
2023-05-09T15:45:24.686Z,1.10
2023-05-09T15:47:58.640Z,1.02
2023-05-09T15:50:26.029Z,1.20
2023-05-09T15:52:53.238Z,1.35
2023-05-09T15:55:28.688Z,1.25
2023-05-09T15:57:55.984Z,1.27
2023-05-09T16:00:30.776Z,1.88
2023-05-09T16:03:05.614Z,1.35
2023-05-09T16:05:39.528Z,1.40
2023-05-09T16:08:06.791Z,1.38
2023-05-09T16:10:34.022Z,1.20
2023-05-09T16:13:07.474Z,1.23
2023-05-09T16:15:35.133Z,1.40
2023-05-09T16:18:08.521Z,1.30
2023-05-09T16:20:35.702Z,1.38
2023-05-09T16:23:24.451Z,1.25
2023-05-09T16:25:58.377Z,1.30
2023-05-09T16:28:34.562Z,1.60
2023-05-09T16:31:04.766Z,1.42
2023-05-09T16:33:33.090Z,1.60
2023-05-09T16:36:06.613Z,1.30
2023-05-09T16:38:34.094Z,1.80
2023-05-09T16:43:35.538Z,1.50
2023-05-09T16:46:02.798Z,1.60
2023-05-09T16:48:36.579Z,1.60
2023-05-09T16:51:03.774Z,1.90
2023-05-09T16:53:30.909Z,2.53
2023-05-09T16:56:05.480Z,2.00
2023-05-09T16:58:33.773Z,1.85
2023-05-09T17:01:08.493Z,2.58
2023-05-09T17:03:48.497Z,2.60
2023-05-09T17:06:22.425Z,2.45
2023-05-09T17:08:49.711Z,2.60
2023-05-09T17:11:16.895Z,2.35
2023-05-09T17:13:50.431Z,2.50
2023-05-09T17:16:24.385Z,2.15
2023-05-09T17:18:58.563Z,2.00
2023-05-09T17:21:25.976Z,1.70
2023-05-09T17:24:00.495Z,1.90
2023-05-09T17:26:29.367Z,1.75
2023-05-09T17:28:56.581Z,1.73
2023-05-09T17:31:30.553Z,1.65
2023-05-09T17:33:57.911Z,1.70
2023-05-09T17:36:32.548Z,1.85
2023-05-09T17:38:59.783Z,1.85
2023-05-09T17:41:26.877Z,1.70
2023-05-09T17:44:03.507Z,1.67
2023-05-09T17:46:30.913Z,1.65
2023-05-09T17:49:04.661Z,1.52
2023-05-09T17:51:32.818Z,1.60
2023-05-09T17:53:59.915Z,1.98
2023-05-09T17:56:33.603Z,1.75
2023-05-09T17:59:00.775Z,1.98
2023-05-09T18:01:47.619Z,2.30
2023-05-09T18:04:14.843Z,2.50
2023-05-09T18:06:41.945Z,2.35
2023-05-09T18:09:15.532Z,2.60
2023-05-09T18:11:42.896Z,2.47
2023-05-09T18:14:16.728Z,2.13
2023-05-09T18:16:43.985Z,2.50
2023-05-09T18:19:11.346Z,2.40
2023-05-09T18:21:45.570Z,2.83
2023-05-09T18:24:14.333Z,2.20
2023-05-09T19:46:15.460Z,2.40
2023-05-09T19:48:49.357Z,2.70
2023-05-09T19:51:16.952Z,2.80
2023-05-09T19:56:17.936Z,2.40
2023-05-09T19:58:49.483Z,2.67
2023-05-09T20:01:24.508Z,2.60
2023-05-09T20:03:52.376Z,2.30
2023-05-09T20:06:35.557Z,3.00
2023-05-09T20:09:02.731Z,2.65
2023-05-09T20:11:36.474Z,2.90
2023-05-09T20:14:10.477Z,2.80
2023-05-09T20:16:37.879Z,2.55
2023-05-09T20:19:07.514Z,3.03
2023-05-09T20:21:41.497Z,2.65
2023-05-09T20:24:09.244Z,3.00
2023-05-09T20:29:09.917Z,2.60
2023-05-09T20:31:37.104Z,2.90
2023-05-09T20:34:10.739Z,2.65
2023-05-09T20:36:38.250Z,2.90
2023-05-09T20:39:05.602Z,2.75
2023-05-09T20:41:41.459Z,2.70
2023-05-09T20:44:15.922Z,3.17
2023-05-09T20:46:50.539Z,3.00
2023-05-09T20:49:17.738Z,3.15
2023-05-09T20:51:44.835Z,3.35
2023-05-09T20:54:18.524Z,3.03
2023-05-09T20:56:45.726Z,3.20
2023-05-09T20:59:19.471Z,2.90
2023-05-09T21:01:46.912Z,2.83
2023-05-09T21:04:15.775Z,3.20
2023-05-09T21:06:49.584Z,3.20
2023-05-09T21:09:16.842Z,2.78
2023-05-09T21:11:50.590Z,2.72
2023-05-09T21:14:17.918Z,2.97
2023-05-09T21:16:46.478Z,3.10
2023-05-09T21:19:20.559Z,2.65
2023-05-09T21:21:47.735Z,3.30
2023-05-09T21:24:21.658Z,2.90
2023-05-09T21:26:48.813Z,3.20
2023-05-09T21:29:15.929Z,3.50
2023-05-09T21:31:49.522Z,3.25
2023-05-09T21:34:16.707Z,3.20
2023-05-09T21:36:50.468Z,3.03
2023-05-09T21:39:17.628Z,3.25
2023-05-09T21:41:51.454Z,3.38
2023-05-09T21:44:25.478Z,3.67
2023-05-09T21:47:06.716Z,2.78
2023-05-09T21:49:41.413Z,3.05
2023-05-09T21:52:15.467Z,3.20
2023-05-09T21:54:49.546Z,3.58
2023-05-09T21:57:23.573Z,3.03
2023-05-09T21:59:50.885Z,3.10
2023-05-09T22:02:24.776Z,3.30
2023-05-09T22:04:52.429Z,3.00
2023-05-09T22:09:53.478Z,2.75
2023-05-09T22:12:20.703Z,3.47
2023-05-09T22:14:55.844Z,3.15
2023-05-09T22:17:30.889Z,3.20
2023-05-09T22:19:57.980Z,3.33
2023-05-09T22:22:50.501Z,3.15
2023-05-09T22:25:17.655Z,3.15
2023-05-09T22:27:44.938Z,2.63
2023-05-09T22:30:19.549Z,3.10
2023-05-09T22:32:46.759Z,3.10
2023-05-09T22:35:20.488Z,3.05
2023-05-09T22:37:54.542Z,3.50
2023-05-09T22:40:28.571Z,3.13
2023-05-09T22:42:55.761Z,3.17
2023-05-09T22:45:36.660Z,2.75
2023-05-09T22:48:10.734Z,2.90
2023-05-09T22:50:44.714Z,2.97
2023-05-09T22:53:12.024Z,3.13
2023-05-09T22:55:39.133Z,3.30
2023-05-09T22:58:13.554Z,3.47
2023-05-09T23:00:40.867Z,3.72
2023-05-09T23:03:14.653Z,4.05
2023-05-09T23:05:42.903Z,3.58
2023-05-09T23:08:10.350Z,3.42
2023-05-09T23:10:44.461Z,3.50
2023-05-09T23:13:12.383Z,3.45
2023-05-09T23:15:54.655Z,3.58
2023-05-09T23:18:28.616Z,3.50
2023-05-09T23:21:02.723Z,3.53
2023-05-09T23:23:30.216Z,3.20
2023-05-09T23:25:57.397Z,3.70
2023-05-09T23:28:31.819Z,3.65
2023-05-09T23:31:05.457Z,3.55
2023-05-09T23:33:32.673Z,3.42
2023-05-09T23:35:59.981Z,3.28
2023-05-09T23:38:33.509Z,3.53
2023-05-09T23:41:01.322Z,3.15
2023-05-09T23:43:35.480Z,3.30
2023-05-09T23:46:04.159Z,3.17
2023-05-09T23:48:31.664Z,3.53
2023-05-09T23:51:05.543Z,3.22
2023-05-09T23:53:35.070Z,3.47
2023-05-09T23:56:09.675Z,3.40
2023-05-09T23:58:36.975Z,3.30
